Time;durP1;ratioP1;P1;durP2;ratioP2;P2;SDS_P1;SDS_P2;PMS_P1;PMS_P2;Temp;Humidity;BMP_temperature;BMP_pressure;BME280_temperature;BME280_humidity;BME280_pressure;Samples;Min_cycle;Max_cycle;Signal;HPM_P1;HPM_P2
2023/06/23 00:01:20;;;;;;;37.88;33.78;;;17.30;99.90;;;;;;5011301;28;20050;-71
2023/06/23 00:03:46;;;;;;;40.30;36.00;;;17.30;99.90;;;;;;5013152;28;20099;-71
2023/06/23 00:06:15;;;;;;;39.45;35.30;;;17.20;99.90;;;;;;5012805;28;20077;-71
2023/06/23 00:08:42;;;;;;;38.90;34.78;;;17.20;99.90;;;;;;5012927;28;20124;-71
2023/06/23 00:11:08;;;;;;;38.08;33.75;;;17.20;99.90;;;;;;5012022;28;20038;-71
2023/06/23 00:13:35;;;;;;;37.67;33.55;;;17.20;99.90;;;;;;5012087;28;20053;-71
2023/06/23 00:16:04;;;;;;;37.03;32.40;;;17.20;99.90;;;;;;5011230;28;20057;-71
2023/06/23 00:18:36;;;;;;;36.03;32.10;;;17.10;99.90;;;;;;5011723;28;20440;-71
2023/06/23 00:21:07;;;;;;;38.15;31.70;;;17.10;99.90;;;;;;5012207;28;20034;-71
2023/06/23 00:23:33;;;;;;;37.22;32.63;;;17.10;99.90;;;;;;5012758;28;20053;-71
2023/06/23 00:25:59;;;;;;;35.20;31.40;;;17.00;99.90;;;;;;5011140;28;20064;-71
2023/06/23 00:28:25;;;;;;;38.13;32.00;;;17.10;99.90;;;;;;5010695;28;20055;-72
2023/06/23 00:30:52;;;;;;;36.53;31.35;;;17.00;99.90;;;;;;5011053;28;20556;-71
2023/06/23 00:33:19;;;;;;;38.08;33.45;;;16.90;99.90;;;;;;5011796;28;20104;-71
2023/06/23 00:35:44;;;;;;;35.38;31.48;;;16.90;99.90;;;;;;5011229;28;20038;-71
2023/06/23 00:38:10;;;;;;;38.60;34.03;;;16.90;99.90;;;;;;5011568;28;20052;-71
2023/06/23 00:40:36;;;;;;;40.08;33.55;;;16.90;99.90;;;;;;5012596;28;20045;-72
2023/06/23 00:43:02;;;;;;;39.33;34.63;;;16.90;99.90;;;;;;5010334;28;20501;-71
2023/06/23 00:45:29;;;;;;;37.63;33.53;;;16.80;99.90;;;;;;5011376;28;20164;-71
2023/06/23 00:47:55;;;;;;;37.35;33.33;;;16.80;99.90;;;;;;5011165;28;20513;-71
2023/06/23 00:50:23;;;;;;;38.67;33.38;;;16.80;99.90;;;;;;5013146;28;20521;-71
2023/06/23 00:52:52;;;;;;;41.03;35.38;;;16.70;99.90;;;;;;5014783;28;20073;-71
2023/06/23 00:55:22;;;;;;;41.50;34.45;;;16.70;99.90;;;;;;4995791;28;20054;-71
2023/06/23 00:57:52;;;;;;;39.97;33.88;;;16.70;99.90;;;;;;4996153;28;20071;-71
2023/06/23 01:00:19;;;;;;;41.72;36.35;;;16.60;99.90;;;;;;4995709;28;20046;-71
2023/06/23 01:02:49;;;;;;;42.97;36.60;;;16.70;99.90;;;;;;5007925;28;20128;-72
2023/06/23 01:05:16;;;;;;;43.92;36.35;;;16.60;99.90;;;;;;5016391;28;20124;-71
2023/06/23 01:08:05;;;;;;;42.67;35.63;;;16.60;99.90;;;;;;5016145;28;20054;-71
2023/06/23 01:10:39;;;;;;;39.53;33.80;;;16.50;99.90;;;;;;5014359;28;20076;-71
2023/06/23 01:13:33;;;;;;;39.03;33.28;;;16.50;99.90;;;;;;5016142;28;20113;-71
2023/06/23 01:16:44;;;;;;;36.07;31.73;;;16.40;99.90;;;;;;5015151;28;20415;-71
2023/06/23 01:19:42;;;;;;;38.75;32.80;;;16.40;99.90;;;;;;5006926;28;20072;-71
2023/06/23 01:22:26;;;;;;;;;;;16.50;99.90;;;;;;5015231;28;20053;-71
2023/06/23 01:25:37;;;;;;;39.15;32.45;;;16.40;99.90;;;;;;5014790;28;20335;-71
2023/06/23 01:28:14;;;;;;;40.08;32.83;;;16.40;99.90;;;;;;5016003;28;20052;-71
2023/06/23 01:30:43;;;;;;;39.72;33.05;;;16.40;99.90;;;;;;5014990;28;20038;-71
2023/06/23 01:33:17;;;;;;;40.03;33.45;;;16.40;99.90;;;;;;5014719;28;20081;-71
2023/06/23 01:35:47;;;;;;;39.55;33.92;;;16.40;99.90;;;;;;5015008;28;20557;-71
2023/06/23 01:38:38;;;;;;;42.75;34.40;;;16.40;99.90;;;;;;5015176;28;20049;-71
2023/06/23 01:41:09;;;;;;;40.10;33.20;;;16.40;99.90;;;;;;5015786;28;20042;-71
2023/06/23 01:43:40;;;;;;;42.65;33.38;;;16.40;99.90;;;;;;5015321;28;20058;-71
2023/06/23 01:46:25;;;;;;;42.53;33.20;;;16.30;99.90;;;;;;5014412;28;20057;-71
2023/06/23 01:48:57;;;;;;;40.80;30.60;;;16.30;99.90;;;;;;5013991;28;20081;-71
2023/06/23 01:51:28;;;;;;;38.25;32.22;;;16.30;99.90;;;;;;5015377;28;20042;-71
2023/06/23 01:53:56;;;;;;;35.38;30.10;;;16.30;99.90;;;;;;5014312;28;20113;-71
2023/06/23 01:56:25;;;;;;;36.58;29.33;;;16.30;99.90;;;;;;5015182;28;20121;-71
2023/06/23 01:58:52;;;;;;;35.22;28.70;;;16.30;99.90;;;;;;5014643;28;20092;-71
2023/06/23 02:01:19;;;;;;;33.20;27.65;;;16.30;99.90;;;;;;5013235;28;20050;-71
2023/06/23 02:03:47;;;;;;;35.30;27.55;;;16.30;99.90;;;;;;5015331;28;20065;-71
2023/06/23 02:06:14;;;;;;;33.85;26.65;;;16.30;99.90;;;;;;5014575;28;20053;-71
2023/06/23 02:08:40;;;;;;;33.90;25.92;;;16.30;99.90;;;;;;5013617;28;20124;-72
2023/06/23 02:11:07;;;;;;;34.10;26.40;;;16.30;99.90;;;;;;5013804;28;20188;-71
2023/06/23 02:13:37;;;;;;;34.75;25.95;;;16.30;99.90;;;;;;5012923;28;20512;-71
2023/06/23 02:16:06;;;;;;;29.90;24.67;;;17.30;99.90;;;;;;5015091;28;20494;-71
2023/06/23 02:18:35;;;;;;;32.33;24.58;;;16.20;99.90;;;;;;5013750;28;20045;-71
2023/06/23 02:21:04;;;;;;;30.88;24.50;;;16.20;99.90;;;;;;5014307;28;20107;-71
2023/06/23 02:23:30;;;;;;;34.08;25.17;;;16.20;99.90;;;;;;5014582;28;20525;-71
2023/06/23 02:25:57;;;;;;;34.15;24.80;;;16.20;99.90;;;;;;5014815;28;20058;-71
2023/06/23 02:28:23;;;;;;;36.30;24.95;;;16.20;99.90;;;;;;5013969;28;20038;-71
2023/06/23 02:30:50;;;;;;;31.70;23.25;;;16.20;99.90;;;;;;5014671;28;20050;-71
2023/06/23 02:33:15;;;;;;;33.03;23.88;;;16.20;99.90;;;;;;5013519;28;20054;-71
2023/06/23 02:35:41;;;;;;;28.58;22.60;;;16.10;99.90;;;;;;5012538;28;20140;-72
2023/06/23 02:38:15;;;;;;;31.23;21.95;;;16.10;99.90;;;;;;5014606;28;20033;-71
2023/06/23 02:40:43;;;;;;;28.33;21.67;;;16.10;99.90;;;;;;5013043;28;20045;-71
2023/06/23 02:43:43;;;;;;;26.85;20.98;;;16.00;99.90;;;;;;5012046;28;20049;-71
2023/06/23 02:46:10;;;;;;;27.02;19.58;;;16.00;99.90;;;;;;5006274;28;20045;-71
2023/06/23 02:48:39;;;;;;;28.65;19.77;;;15.90;99.90;;;;;;5012162;28;20057;-71
2023/06/23 02:51:09;;;;;;;26.92;19.60;;;15.90;99.90;;;;;;5013684;28;20496;-71
2023/06/23 02:53:45;;;;;;;29.33;19.17;;;15.90;99.90;;;;;;5012775;28;20132;-71
2023/06/23 02:56:22;;;;;;;25.65;17.67;;;15.80;99.90;;;;;;5013905;28;20041;-71
2023/06/23 02:58:52;;;;;;;26.50;17.05;;;15.80;99.90;;;;;;5012577;28;20493;-71
2023/06/23 03:01:22;;;;;;;23.80;16.50;;;15.80;99.90;;;;;;5012883;28;20050;-71
2023/06/23 03:03:50;;;;;;;24.17;17.50;;;15.80;99.90;;;;;;5012637;28;20494;-71
2023/06/23 03:06:21;;;;;;;24.20;16.58;;;15.80;99.90;;;;;;5012694;28;20141;-71
2023/06/23 03:08:47;;;;;;;23.00;15.05;;;15.70;99.90;;;;;;5011762;28;20049;-71
2023/06/23 03:11:16;;;;;;;23.15;15.43;;;15.70;99.90;;;;;;5013236;28;20208;-72
2023/06/23 03:13:43;;;;;;;22.35;15.05;;;15.60;99.90;;;;;;5012555;28;20048;-71
2023/06/23 03:16:25;;;;;;;22.55;15.15;;;15.60;99.90;;;;;;5011809;28;20077;-71
2023/06/23 03:19:04;;;;;;;21.75;14.65;;;15.60;99.90;;;;;;5013544;28;20123;-71
2023/06/23 03:21:32;;;;;;;19.55;14.48;;;15.60;99.90;;;;;;5012636;28;20057;-71
2023/06/23 03:24:02;;;;;;;19.55;14.55;;;15.60;99.90;;;;;;5012936;28;20042;-71
2023/06/23 03:26:30;;;;;;;21.00;14.73;;;15.60;99.90;;;;;;5013868;28;20367;-71
2023/06/23 03:29:00;;;;;;;22.35;14.75;;;15.60;99.90;;;;;;5013416;28;20060;-71
2023/06/23 03:31:26;;;;;;;20.35;14.45;;;15.60;99.90;;;;;;5012966;28;20038;-71
2023/06/23 03:33:56;;;;;;;23.27;14.23;;;15.50;99.90;;;;;;5011461;28;20498;-71
2023/06/23 03:36:24;;;;;;;20.85;13.90;;;15.50;99.90;;;;;;5013366;28;20042;-70
2023/06/23 03:39:03;;;;;;;19.63;14.05;;;15.50;99.90;;;;;;5011035;28;20100;-71
2023/06/23 03:41:30;;;;;;;20.73;13.43;;;15.50;99.90;;;;;;5012415;28;20034;-71
2023/06/23 03:44:33;;;;;;;22.60;13.88;;;15.50;99.90;;;;;;5012858;28;20050;-71
2023/06/23 03:47:20;;;;;;;21.70;14.00;;;15.50;99.90;;;;;;5012841;28;20038;-71
2023/06/23 03:49:55;;;;;;;18.90;13.48;;;15.60;99.90;;;;;;5011978;28;20065;-72
2023/06/23 03:52:23;;;;;;;18.33;13.38;;;15.60;99.90;;;;;;5011432;28;20054;-71
2023/06/23 03:54:52;;;;;;;18.10;14.02;;;15.50;99.90;;;;;;5011789;28;20062;-71
2023/06/23 03:57:21;;;;;;;16.40;13.23;;;15.50;99.90;;;;;;5012991;28;20042;-71
2023/06/23 03:59:50;;;;;;;18.98;13.98;;;15.50;99.90;;;;;;5011023;28;20133;-71
2023/06/23 04:02:20;;;;;;;19.45;14.52;;;15.50;99.90;;;;;;5012834;28;20029;-71
2023/06/23 04:04:48;;;;;;;23.85;14.90;;;15.60;99.90;;;;;;5012449;28;20045;-71
2023/06/23 04:07:15;;;;;;;20.67;15.05;;;15.60;99.90;;;;;;5010638;28;20088;-71
2023/06/23 04:09:48;;;;;;;20.10;14.77;;;15.60;99.90;;;;;;5013053;28;20042;-71
2023/06/23 04:12:16;;;;;;;23.55;15.20;;;15.60;99.90;;;;;;5012021;28;20046;-71
2023/06/23 04:14:45;;;;;;;23.92;15.52;;;15.60;99.90;;;;;;5011912;28;20542;-71
2023/06/23 04:17:12;;;;;;;23.55;15.05;;;15.70;99.90;;;;;;5012719;28;20053;-71
2023/06/23 04:19:44;;;;;;;22.05;15.30;;;15.70;99.90;;;;;;5010712;28;20057;-71
2023/06/23 04:22:14;;;;;;;19.13;14.57;;;15.80;99.90;;;;;;5011295;28;20136;-71
2023/06/23 04:24:40;;;;;;;19.95;15.10;;;15.80;99.90;;;;;;5011071;28;20069;-71
2023/06/23 04:27:08;;;;;;;18.95;14.20;;;15.80;99.90;;;;;;5010489;28;20053;-71
2023/06/23 04:29:36;;;;;;;19.20;14.63;;;15.80;99.90;;;;;;5009622;28;20049;-72
2023/06/23 04:32:02;;;;;;;18.58;14.73;;;15.90;99.90;;;;;;5009775;28;20434;-71
2023/06/23 04:34:29;;;;;;;20.73;13.80;;;15.90;99.90;;;;;;5009390;28;20115;-71
2023/06/23 04:37:07;;;;;;;20.73;13.32;;;16.00;99.90;;;;;;5010382;28;20385;-71
2023/06/23 04:39:56;;;;;;;19.67;14.30;;;16.00;99.90;;;;;;5011562;28;20107;-71
2023/06/23 04:42:27;;;;;;;21.17;14.25;;;16.00;99.90;;;;;;5010467;28;20057;-69
2023/06/23 04:44:56;;;;;;;18.75;13.63;;;16.10;99.90;;;;;;5011997;28;20042;-71
2023/06/23 04:47:25;;;;;;;18.92;13.40;;;16.20;99.90;;;;;;5011215;28;20061;-71
2023/06/23 04:49:57;;;;;;;20.55;13.70;;;16.20;99.90;;;;;;5010227;28;20042;-72
2023/06/23 04:52:24;;;;;;;19.60;13.38;;;16.30;99.90;;;;;;5012632;28;20038;-72
2023/06/23 04:54:56;;;;;;;20.77;13.38;;;16.30;99.90;;;;;;5011357;28;20120;-71
2023/06/23 04:57:27;;;;;;;18.35;12.65;;;16.40;99.90;;;;;;5011460;28;20049;-73
2023/06/23 04:59:57;;;;;;;18.75;12.63;;;16.50;99.90;;;;;;5011690;28;20057;-71
2023/06/23 05:02:26;;;;;;;21.05;13.77;;;16.60;99.90;;;;;;5010365;28;20054;-78
2023/06/23 05:04:53;;;;;;;18.20;13.10;;;16.70;99.90;;;;;;5010438;28;20220;-74
2023/06/23 05:07:21;;;;;;;19.38;14.27;;;16.80;99.90;;;;;;5011004;28;20046;-73
2023/06/23 05:09:52;;;;;;;23.02;15.07;;;16.90;99.90;;;;;;5010961;28;20494;-74
2023/06/23 05:12:20;;;;;;;19.48;14.18;;;17.00;99.90;;;;;;5011927;28;20068;-73
2023/06/23 05:14:49;;;;;;;22.23;15.75;;;17.10;99.90;;;;;;5011712;28;20045;-74
2023/06/23 05:17:16;;;;;;;20.70;14.23;;;17.20;99.90;;;;;;5010543;28;20395;-72
2023/06/23 05:19:45;;;;;;;21.75;15.20;;;17.20;99.90;;;;;;5010806;28;20132;-71
2023/06/23 05:22:22;;;;;;;19.02;13.80;;;17.30;99.90;;;;;;5011861;28;20489;-71
2023/06/23 05:24:56;;;;;;;21.98;15.07;;;17.30;99.90;;;;;;5009777;28;20490;-73
2023/06/23 05:27:24;;;;;;;21.27;15.02;;;17.30;99.90;;;;;;5012164;28;20052;-73
2023/06/23 05:29:54;;;;;;;19.20;13.98;;;17.50;99.90;;;;;;5009396;28;20065;-72
2023/06/23 05:32:25;;;;;;;16.85;13.00;;;17.50;99.90;;;;;;5011918;28;20468;-72
2023/06/23 05:34:58;;;;;;;20.92;13.00;;;17.60;99.90;;;;;;5010204;28;20573;-74
2023/06/23 05:37:25;;;;;;;17.83;12.70;;;17.60;99.90;;;;;;5014504;28;20042;-72
2023/06/23 05:39:52;;;;;;;16.75;11.85;;;17.70;99.90;;;;;;5013896;28;20058;-75
2023/06/23 05:42:19;;;;;;;14.68;11.38;;;17.80;99.90;;;;;;5014187;28;20046;-72
2023/06/23 05:44:45;;;;;;;16.05;11.40;;;17.80;99.90;;;;;;5012367;28;20133;-71
2023/06/23 05:47:20;;;;;;;17.83;12.68;;;17.70;99.90;;;;;;5024802;28;20148;-71
2023/06/23 05:49:48;;;;;;;14.43;11.85;;;17.80;99.90;;;;;;5024496;28;20038;-70
2023/06/23 05:52:18;;;;;;;15.50;11.48;;;17.80;99.90;;;;;;5012215;28;20045;-72
2023/06/23 05:54:46;;;;;;;15.00;11.27;;;17.80;99.90;;;;;;5009981;28;20104;-73
2023/06/23 05:57:27;;;;;;;15.25;10.63;;;17.80;99.90;;;;;;5011769;28;20054;-73
2023/06/23 06:00:14;;;;;;;12.80;10.15;;;17.90;99.90;;;;;;5011559;28;20053;-73
2023/06/23 06:02:43;;;;;;;14.85;11.23;;;17.90;99.90;;;;;;5007970;28;20058;-74
2023/06/23 06:05:12;;;;;;;15.38;10.90;;;17.90;99.90;;;;;;5010964;28;20049;-73
2023/06/23 06:07:39;;;;;;;13.68;10.30;;;18.00;99.90;;;;;;5012769;28;20050;-72
2023/06/23 06:10:10;;;;;;;14.15;10.40;;;18.00;99.90;;;;;;5012087;28;20045;-71
2023/06/23 06:12:38;;;;;;;12.25;10.05;;;18.10;99.90;;;;;;5011660;28;20485;-72
2023/06/23 06:15:06;;;;;;;13.77;10.23;;;18.20;99.90;;;;;;5014013;28;20053;-72
2023/06/23 06:17:33;;;;;;;15.55;11.23;;;18.40;99.90;;;;;;5013161;28;20046;-70
2023/06/23 06:20:02;;;;;;;15.32;10.98;;;18.50;99.90;;;;;;5012602;28;20050;-72
2023/06/23 06:22:32;;;;;;;13.55;10.43;;;18.60;99.90;;;;;;5013108;28;20486;-73
2023/06/23 06:24:59;;;;;;;13.05;9.50;;;18.80;99.90;;;;;;5015148;28;20041;-72
2023/06/23 06:27:27;;;;;;;13.57;8.93;;;18.90;99.90;;;;;;5013844;28;20462;-71
2023/06/23 06:29:56;;;;;;;10.52;8.52;;;18.90;99.90;;;;;;5013384;28;20057;-70
2023/06/23 06:32:25;;;;;;;12.38;8.38;;;18.80;99.90;;;;;;5013686;28;20398;-72
2023/06/23 06:34:52;;;;;;;13.48;8.88;;;18.90;99.90;;;;;;5012468;28;20053;-71
2023/06/23 06:37:19;;;;;;;11.10;7.82;;;18.90;99.90;;;;;;5013312;28;20060;-73
2023/06/23 06:39:46;;;;;;;10.80;8.20;;;19.10;99.90;;;;;;5014033;28;20388;-72
2023/06/23 06:42:14;;;;;;;11.05;7.47;;;19.20;99.90;;;;;;5013040;28;20046;-71
2023/06/23 06:44:40;;;;;;;10.80;7.32;;;19.20;99.90;;;;;;5013999;28;20096;-71
2023/06/23 06:47:08;;;;;;;10.27;7.28;;;19.30;99.90;;;;;;5014105;28;20049;-71
2023/06/23 06:49:36;;;;;;;9.38;6.45;;;19.30;99.90;;;;;;5011687;28;20516;-72
2023/06/23 06:52:03;;;;;;;9.75;6.15;;;19.30;99.90;;;;;;5011140;28;20093;-71
2023/06/23 06:54:29;;;;;;;9.73;6.47;;;19.30;99.90;;;;;;5011560;28;20042;-71
2023/06/23 06:56:56;;;;;;;10.23;6.78;;;19.40;99.90;;;;;;5010452;28;20058;-72
2023/06/23 06:59:25;;;;;;;8.90;6.00;;;19.40;99.90;;;;;;5011129;28;20096;-72
2023/06/23 07:01:52;;;;;;;8.90;6.15;;;19.40;99.90;;;;;;5010084;28;20089;-72
2023/06/23 07:04:19;;;;;;;11.38;7.38;;;19.40;99.90;;;;;;5010884;28;20096;-70
2023/06/23 07:06:56;;;;;;;9.25;6.60;;;19.50;99.90;;;;;;5016232;28;20049;-73
2023/06/23 07:09:22;;;;;;;9.57;5.85;;;19.50;99.90;;;;;;4993636;28;20053;-71
2023/06/23 07:11:49;;;;;;;8.57;6.40;;;19.60;99.90;;;;;;5001122;28;20113;-71
2023/06/23 07:14:15;;;;;;;9.95;6.68;;;19.60;99.90;;;;;;5012641;28;20100;-70
2023/06/23 07:16:47;;;;;;;9.60;6.50;;;19.80;99.90;;;;;;5012762;28;20482;-70
2023/06/23 07:19:13;;;;;;;9.57;6.63;;;19.90;99.90;;;;;;5013798;28;20049;-70
2023/06/23 07:21:39;;;;;;;8.85;6.32;;;20.10;99.90;;;;;;5012005;28;20053;-70
2023/06/23 07:24:05;;;;;;;9.20;5.65;;;20.60;99.90;;;;;;5012568;28;20046;-70
2023/06/23 07:26:33;;;;;;;7.68;5.10;;;21.40;99.90;;;;;;5013759;28;20497;-70
2023/06/23 07:28:58;;;;;;;8.50;5.05;;;22.10;99.90;;;;;;5011855;28;20133;-71
2023/06/23 07:31:25;;;;;;;8.98;4.47;;;22.50;99.90;;;;;;5013114;28;20128;-71
2023/06/23 07:33:51;;;;;;;6.45;4.70;;;22.90;99.90;;;;;;5013004;28;20080;-71
2023/06/23 07:36:17;;;;;;;8.00;4.70;;;23.00;99.90;;;;;;5011972;28;20050;-71
2023/06/23 07:38:49;;;;;;;7.35;4.13;;;22.70;99.90;;;;;;5011534;28;20045;-71
2023/06/23 07:41:17;;;;;;;5.22;4.10;;;22.50;99.90;;;;;;5012301;28;20045;-71
2023/06/23 07:43:45;;;;;;;6.22;4.22;;;22.80;99.90;;;;;;5010804;28;20058;-71
2023/06/23 07:46:11;;;;;;;6.47;4.03;;;23.30;99.90;;;;;;5011567;28;20077;-71
2023/06/23 07:48:37;;;;;;;7.20;4.35;;;23.40;99.90;;;;;;5011200;28;20405;-71
2023/06/23 07:51:03;;;;;;;6.53;4.45;;;23.30;99.90;;;;;;5012487;28;20026;-70
2023/06/23 07:53:28;;;;;;;7.03;4.80;;;23.10;99.90;;;;;;5011577;28;20401;-70
2023/06/23 07:55:54;;;;;;;5.60;4.40;;;23.30;99.90;;;;;;5011218;28;20042;-70
2023/06/23 07:58:20;;;;;;;7.15;4.18;;;23.90;99.90;;;;;;5010179;28;20449;-70
2023/06/23 08:00:46;;;;;;;6.80;4.20;;;24.40;99.90;;;;;;5012482;28;20048;-70
2023/06/23 08:03:12;;;;;;;7.72;4.65;;;24.40;99.90;;;;;;5013038;28;20048;-70
2023/06/23 08:05:38;;;;;;;6.75;4.40;;;24.40;99.90;;;;;;5009775;28;20030;-70
2023/06/23 08:08:05;;;;;;;7.57;5.20;;;24.10;99.90;;;;;;5011250;28;20433;-70
2023/06/23 08:10:31;;;;;;;5.65;4.47;;;24.30;99.90;;;;;;5012612;28;20432;-70
2023/06/23 08:12:59;;;;;;;6.32;4.45;;;25.10;99.90;;;;;;5011397;28;20085;-71
2023/06/23 08:15:31;;;;;;;7.55;4.53;;;25.70;99.90;;;;;;5011805;28;20046;-70
2023/06/23 08:17:57;;;;;;;7.18;4.68;;;26.00;99.90;;;;;;5012712;28;20038;-71
2023/06/23 08:20:23;;;;;;;6.05;4.43;;;26.50;99.90;;;;;;5011860;28;20049;-71
2023/06/23 08:22:48;;;;;;;5.88;4.57;;;26.90;99.90;;;;;;5010994;28;20119;-71
2023/06/23 08:25:14;;;;;;;7.88;4.70;;;26.90;99.40;;;;;;5012722;28;20124;-70
2023/06/23 08:27:40;;;;;;;6.15;4.75;;;27.00;99.90;;;;;;5011550;28;20053;-70
2023/06/23 08:30:06;;;;;;;7.75;4.90;;;27.50;98.40;;;;;;5012757;28;20037;-70
2023/06/23 08:32:33;;;;;;;5.82;4.53;;;27.90;98.50;;;;;;5011041;28;20516;-70
2023/06/23 08:35:05;;;;;;;7.38;5.00;;;28.30;98.40;;;;;;5010417;28;20061;-74
2023/06/23 08:37:30;;;;;;;6.35;4.75;;;28.00;97.10;;;;;;5012574;28;20100;-70
2023/06/23 08:39:56;;;;;;;5.68;4.78;;;28.00;97.30;;;;;;5011796;28;20042;-70
2023/06/23 08:42:22;;;;;;;7.68;4.68;;;28.50;97.40;;;;;;5012334;28;20042;-71
2023/06/23 08:44:50;;;;;;;6.13;4.80;;;28.90;97.00;;;;;;5011418;28;20139;-72
2023/06/23 08:47:19;;;;;;;7.65;5.15;;;28.40;95.90;;;;;;5011980;28;20046;-72
2023/06/23 08:49:48;;;;;;;6.22;4.60;;;28.20;96.10;;;;;;5012080;28;20046;-72
2023/06/23 08:52:17;;;;;;;7.93;5.05;;;28.80;95.80;;;;;;5011640;28;20143;-72
2023/06/23 08:54:43;;;;;;;7.13;4.72;;;29.10;95.60;;;;;;5022556;28;20042;-71
2023/06/23 08:57:09;;;;;;;8.02;5.25;;;29.60;95.60;;;;;;5015656;28;20077;-73
2023/06/23 08:59:35;;;;;;;6.53;4.57;;;30.00;94.70;;;;;;5012249;28;20501;-73
2023/06/23 09:02:04;;;;;;;6.63;4.57;;;29.30;93.50;;;;;;5011509;28;20085;-74
2023/06/23 09:04:29;;;;;;;6.00;4.75;;;29.10;94.50;;;;;;5012564;28;20052;-73
2023/06/23 09:06:55;;;;;;;6.38;4.78;;;29.10;94.40;;;;;;5012242;28;20042;-72
2023/06/23 09:09:26;;;;;;;5.93;4.47;;;28.70;94.60;;;;;;5010461;28;20057;-73
2023/06/23 09:11:53;;;;;;;7.00;3.97;;;28.70;94.60;;;;;;5012497;28;20100;-71
2023/06/23 09:14:18;;;;;;;5.43;3.65;;;28.70;93.70;;;;;;5016157;28;20120;-72
2023/06/23 09:16:45;;;;;;;6.65;3.95;;;29.10;94.20;;;;;;5014187;28;20136;-71
2023/06/23 09:19:14;;;;;;;5.18;3.90;;;29.40;93.70;;;;;;5015237;28;20081;-71
2023/06/23 09:21:42;;;;;;;5.60;3.63;;;30.00;93.70;;;;;;5015672;28;20440;-71
2023/06/23 09:24:08;;;;;;;4.93;3.72;;;30.10;92.20;;;;;;5015721;28;20042;-72
2023/06/23 09:26:51;;;;;;;5.47;4.00;;;30.10;93.10;;;;;;5015705;28;20388;-72
2023/06/23 09:29:28;;;;;;;5.90;3.60;;;30.50;92.00;;;;;;5013943;28;20058;-71
2023/06/23 09:31:56;;;;;;;4.68;3.55;;;30.90;91.50;;;;;;5015835;28;20048;-71
2023/06/23 09:34:30;;;;;;;6.38;3.78;;;30.80;91.70;;;;;;5015985;28;20053;-72
2023/06/23 09:37:12;;;;;;;4.78;3.63;;;30.60;91.10;;;;;;5015943;28;20037;-72
2023/06/23 09:39:43;;;;;;;4.85;3.47;;;30.60;90.90;;;;;;5020658;28;20486;-72
2023/06/23 09:42:13;;;;;;;4.93;3.80;;;30.60;91.90;;;;;;5028158;28;20067;-72
2023/06/23 09:44:47;;;;;;;5.93;3.30;;;30.40;92.00;;;;;;5018467;28;20117;-71
2023/06/23 09:47:18;;;;;;;4.50;3.50;;;30.40;91.20;;;;;;5015187;28;20045;-74
2023/06/23 09:49:46;;;;;;;7.60;3.70;;;30.80;90.70;;;;;;5013072;28;20521;-74
2023/06/23 09:52:13;;;;;;;6.32;3.90;;;30.90;90.80;;;;;;5012285;28;20867;-73
2023/06/23 09:54:45;;;;;;;6.55;4.03;;;30.60;91.40;;;;;;5013063;28;20058;-71
2023/06/23 09:57:15;;;;;;;5.85;3.70;;;30.50;91.40;;;;;;5012973;28;20046;-73
2023/06/23 09:59:45;;;;;;;6.18;4.28;;;30.50;90.20;;;;;;5013143;28;20085;-73
2023/06/23 10:02:25;;;;;;;5.90;3.63;;;30.30;91.30;;;;;;5013506;28;20042;-74
2023/06/23 10:05:04;;;;;;;7.15;3.67;;;30.50;90.00;;;;;;5013365;28;20129;-73
2023/06/23 10:07:30;;;;;;;6.57;3.78;;;30.70;90.50;;;;;;5013737;28;20054;-72
2023/06/23 10:10:03;;;;;;;5.97;3.28;;;30.70;90.70;;;;;;5013512;28;20044;-72
2023/06/23 10:12:30;;;;;;;4.72;3.50;;;30.70;90.70;;;;;;5012525;28;20042;-75
2023/06/23 10:14:57;;;;;;;5.15;3.15;;;30.70;91.00;;;;;;5013307;28;20054;-73
2023/06/23 10:17:23;;;;;;;4.95;2.60;;;30.90;90.50;;;;;;5013468;28;20049;-74
2023/06/23 10:19:51;;;;;;;5.30;3.65;;;30.90;90.10;;;;;;5012875;28;20038;-74
2023/06/23 10:22:19;;;;;;;5.03;3.45;;;31.10;89.70;;;;;;5013721;28;20096;-73
2023/06/23 10:24:53;;;;;;;4.72;3.13;;;30.80;87.80;;;;;;5011573;28;20045;-74
2023/06/23 10:27:27;;;;;;;5.28;3.70;;;30.80;89.90;;;;;;5012304;28;20081;-75
2023/06/23 10:29:56;;;;;;;6.78;3.90;;;30.60;88.20;;;;;;5013973;28;20513;-73
2023/06/23 10:32:33;;;;;;;5.70;3.80;;;30.20;88.80;;;;;;5012425;28;20493;-73
2023/06/23 10:35:07;;;;;;;6.20;3.33;;;30.30;90.20;;;;;;5013104;28;20052;-72
2023/06/23 10:37:32;;;;;;;4.82;3.30;;;30.20;88.90;;;;;;5013969;28;20405;-72
2023/06/23 10:40:03;;;;;;;5.05;3.30;;;29.70;88.90;;;;;;5012809;28;20048;-72
2023/06/23 10:42:32;;;;;;;6.25;3.28;;;29.60;90.90;;;;;;5013549;28;20045;-72
2023/06/23 10:45:01;;;;;;;3.78;2.83;;;29.40;89.50;;;;;;5014383;28;20049;-73
2023/06/23 10:47:27;;;;;;;5.00;3.20;;;29.50;90.00;;;;;;5012029;28;20050;-73
2023/06/23 10:49:55;;;;;;;7.15;3.05;;;30.00;90.40;;;;;;5010448;28;20061;-72
2023/06/23 10:52:22;;;;;;;4.63;2.90;;;29.90;90.10;;;;;;5014086;28;20046;-71
2023/06/23 10:54:47;;;;;;;4.57;2.65;;;30.20;89.60;;;;;;5013097;28;20116;-72
2023/06/23 10:57:14;;;;;;;4.70;2.50;;;30.20;87.90;;;;;;5014388;28;20454;-72
2023/06/23 11:00:03;;;;;;;4.65;2.63;;;30.20;88.20;;;;;;5012682;28;20057;-72
2023/06/23 11:02:29;;;;;;;3.58;2.33;;;29.90;90.00;;;;;;5013662;28;20049;-72
2023/06/23 11:05:03;;;;;;;5.10;2.70;;;30.00;88.30;;;;;;5012794;28;20072;-72
2023/06/23 11:07:32;;;;;;;3.83;2.55;;;30.20;87.90;;;;;;5011863;28;20057;-72
2023/06/23 11:09:59;;;;;;;5.10;2.55;;;29.70;88.40;;;;;;5012325;28;20050;-72
2023/06/23 11:12:34;;;;;;;4.03;2.58;;;29.80;86.50;;;;;;5012958;28;20085;-72
2023/06/23 11:15:08;;;;;;;5.33;2.40;;;29.40;85.60;;;;;;5022131;28;20094;-73
2023/06/23 11:17:49;;;;;;;4.30;2.45;;;29.50;87.20;;;;;;5017517;28;20060;-72
2023/06/23 11:20:23;;;;;;;4.22;2.30;;;29.60;87.20;;;;;;5014151;28;20046;-71
2023/06/23 11:22:58;;;;;;;5.70;2.85;;;30.00;85.40;;;;;;5004976;28;20470;-73
2023/06/23 11:25:29;;;;;;;4.97;2.70;;;29.70;88.70;;;;;;5008448;28;20053;-73
2023/06/23 11:28:26;;;;;;;4.15;2.55;;;29.70;87.80;;;;;;5011569;28;20099;-71
2023/06/23 11:31:17;;;;;;;5.35;2.60;;;29.70;86.00;;;;;;5015331;28;20568;-72
2023/06/23 11:33:45;;;;;;;4.78;2.55;;;29.60;87.30;;;;;;5011240;28;20050;-72
2023/06/23 11:36:14;;;;;;;3.50;2.13;;;29.70;87.90;;;;;;5009091;28;20045;-72
2023/06/23 11:38:41;;;;;;;4.18;2.50;;;30.00;86.90;;;;;;5011662;28;20136;-72
2023/06/23 11:41:23;;;;;;;4.30;2.42;;;30.20;85.50;;;;;;5012011;28;20053;-71
2023/06/23 11:43:49;;;;;;;4.18;2.30;;;30.00;87.00;;;;;;5012048;28;20062;-72
2023/06/23 11:46:16;;;;;;;3.70;2.25;;;30.30;81.90;;;;;;5012926;28;20054;-71
2023/06/23 11:48:42;;;;;;;4.28;2.20;;;30.30;83.30;;;;;;5012307;28;20057;-72
2023/06/23 11:51:18;;;;;;;5.05;2.20;;;30.00;82.70;;;;;;5012247;28;20074;-72
2023/06/23 11:53:45;;;;;;;4.93;2.25;;;30.20;81.60;;;;;;5011473;28;20037;-71
2023/06/23 11:56:16;;;;;;;3.90;2.10;;;30.20;82.50;;;;;;5011573;28;20141;-75
2023/06/23 11:58:51;;;;;;;5.35;2.47;;;30.20;83.90;;;;;;5010522;28;20076;-74
2023/06/23 12:01:17;;;;;;;6.05;2.30;;;29.90;80.80;;;;;;5011188;28;20050;-72
2023/06/23 12:03:51;;;;;;;4.95;2.63;;;29.70;83.00;;;;;;5012479;28;20042;-73
2023/06/23 12:06:18;;;;;;;3.38;2.20;;;29.50;85.70;;;;;;5014167;28;20038;-72
2023/06/23 12:08:49;;;;;;;3.80;1.88;;;29.10;82.20;;;;;;5014173;28;20128;-73
2023/06/23 12:11:18;;;;;;;4.13;2.22;;;29.10;85.70;;;;;;5043186;28;20092;-74
2023/06/23 12:13:48;;;;;;;4.53;2.20;;;29.20;87.40;;;;;;5005001;28;20108;-72
2023/06/23 12:16:14;;;;;;;3.88;2.40;;;29.50;84.30;;;;;;5011493;28;20037;-71
2023/06/23 12:18:44;;;;;;;5.18;2.45;;;29.30;86.10;;;;;;5011467;28;20112;-73
2023/06/23 12:21:10;;;;;;;6.10;2.25;;;29.10;87.60;;;;;;5011492;28;20549;-73
2023/06/23 12:23:46;;;;;;;5.60;2.88;;;28.60;86.20;;;;;;5011748;28;20057;-72
2023/06/23 12:26:13;;;;;;;4.82;2.38;;;28.10;88.90;;;;;;5012519;28;20045;-74
2023/06/23 12:29:08;;;;;;;5.70;2.63;;;27.60;90.10;;;;;;5014116;28;20041;-73
2023/06/23 12:31:33;;;;;;;6.32;2.70;;;27.30;90.70;;;;;;5009052;28;20038;-73
2023/06/23 12:34:01;;;;;;;5.05;2.60;;;27.50;91.40;;;;;;5012029;28;20041;-74
2023/06/23 12:36:27;;;;;;;4.95;2.65;;;27.60;90.60;;;;;;5008824;28;20049;-72
2023/06/23 12:38:55;;;;;;;6.10;2.85;;;27.80;91.00;;;;;;5007823;28;20129;-73
2023/06/23 12:41:26;;;;;;;5.00;2.40;;;28.00;91.70;;;;;;5009759;28;20049;-72
2023/06/23 12:43:59;;;;;;;5.47;2.45;;;28.00;90.70;;;;;;5007567;28;20042;-72
2023/06/23 12:46:26;;;;;;;6.28;2.78;;;28.00;90.20;;;;;;5018917;28;20097;-72
2023/06/23 12:48:54;;;;;;;5.60;2.58;;;27.80;90.40;;;;;;5011372;28;20474;-72
2023/06/23 12:51:36;;;;;;;3.58;2.35;;;28.00;90.50;;;;;;5014761;28;20049;-72
2023/06/23 12:54:03;;;;;;;5.22;2.45;;;27.60;90.80;;;;;;5012809;28;20497;-72